.
WxDataArchive / Data Records for 2007-04-12
2007-04-11 April 2007 2007-04-13

Data Records for Thursday, 12 April 2007

Time	Temp	Chill	HIndex	Humid	Dewpt	 Wind 	HiWind	WindDir	Rain 	Barom 
-----	----	-----	------	-----	-----	------	------	-------	-----	----- 
00:00	44.6	44.6	44.6	94	43.0	2	4	248	0.00	29.375 
00:05	44.8	44.8	44.8	94	43.2	3	7	248	0.00	29.374 
00:10	44.8	44.8	44.8	93	42.9	3	9	248	0.00	29.375 
00:15	44.9	44.9	44.9	92	42.7	3	7	248	0.00	29.382 
00:20	44.9	44.9	44.9	92	42.7	3	9	248	0.00	29.382 
00:25	44.9	43.0	44.9	91	42.4	4	10	248	0.00	29.385 
00:30	44.9	43.0	44.9	90	42.1	4	8	248	0.00	29.385 
00:35	44.8	44.8	44.8	89	41.8	3	9	248	0.00	29.386 
00:40	44.8	44.8	44.8	89	41.8	2	5	248	0.00	29.388 
00:45	44.8	44.8	44.8	89	41.8	3	6	248	0.00	29.386 
00:50	44.8	44.8	44.8	88	41.5	2	4	248	0.00	29.386 
00:55	44.8	42.9	44.8	88	41.5	4	11	248	0.00	29.388 
01:00	44.9	43.0	44.9	87	41.3	4	10	270	0.00	29.392 
01:05	44.9	44.9	44.9	87	41.3	2	7	248	0.00	29.388 
01:10	44.9	43.0	44.9	86	41.0	4	7	248	0.00	29.391 
01:15	44.9	44.9	44.9	86	41.0	3	7	248	0.00	29.394 
01:20	44.9	44.9	44.9	86	41.0	3	11	248	0.00	29.396 
01:25	44.6	41.9	44.6	84	40.1	5	12	270	0.00	29.397 
01:30	44.2	42.2	44.2	82	39.1	4	9	270	0.00	29.397 
01:35	43.9	41.8	43.9	81	38.5	4	9	270	0.00	29.397 
01:40	43.8	41.7	43.8	81	38.4	4	10	248	0.00	29.399 
01:45	43.6	41.5	43.6	81	38.2	4	10	270	0.00	29.399 
01:50	43.5	41.4	43.5	80	37.7	4	7	248	0.00	29.398 
01:55	43.2	41.0	43.2	80	37.5	4	11	270	0.00	29.399 
02:00	43.1	40.9	43.1	80	37.4	4	9	270	0.00	29.398 
02:05	42.9	42.9	42.9	81	37.5	3	7	248	0.00	29.397 
02:10	42.8	40.6	42.8	81	37.4	4	10	270	0.00	29.399 
02:15	42.6	40.3	42.6	81	37.2	4	10	248	0.00	29.400 
02:20	42.5	40.2	42.5	81	37.1	4	12	248	0.00	29.399 
02:25	42.5	42.5	42.5	81	37.1	3	6	248	0.00	29.398 
02:30	42.3	42.3	42.3	82	37.2	2	5	248	0.00	29.399 
02:35	42.2	42.2	42.2	82	37.1	3	9	248	0.00	29.400 
02:40	42.1	42.1	42.1	82	37.0	3	5	248	0.00	29.399 
02:45	41.9	41.9	41.9	83	37.1	2	7	248	0.00	29.399 
02:50	41.9	39.5	41.9	82	36.8	4	10	248	0.00	29.400 
02:55	42.1	42.1	42.1	82	37.0	3	10	248	0.00	29.401 
03:00	42.1	42.1	42.1	82	37.0	3	9	248	0.00	29.400 
03:05	42.1	42.1	42.1	81	36.7	3	9	248	0.00	29.402 
03:10	42.1	42.1	42.1	81	36.7	3	10	248	0.00	29.405 
03:15	42.1	42.1	42.1	80	36.4	3	7	248	0.00	29.405 
03:20	42.1	42.1	42.1	80	36.4	2	7	248	0.00	29.403 
03:25	42.1	42.1	42.1	80	36.4	2	7	248	0.00	29.404 
03:30	41.9	41.9	41.9	80	36.2	3	6	248	0.00	29.406 
03:35	41.9	41.9	41.9	81	36.5	2	5	248	0.00	29.401 
03:40	41.8	41.8	41.8	81	36.4	1	5	248	0.00	29.410 
03:45	41.6	41.6	41.6	81	36.2	2	5	248	0.00	29.412 
03:50	41.5	41.5	41.5	81	36.1	2	6	248	0.00	29.414 
03:55	41.3	41.3	41.3	80	35.6	3	11	248	0.00	29.413 
04:00	41.3	38.8	41.3	79	35.3	4	10	248	0.00	29.413 
04:05	41.2	41.2	41.2	79	35.2	3	7	248	0.00	29.414 
04:10	41.2	41.2	41.2	79	35.2	3	10	248	0.00	29.414 
04:15	41.2	41.2	41.2	79	35.2	3	10	248	0.00	29.414 
04:20	41.2	41.2	41.2	79	35.2	2	5	248	0.00	29.416 
04:25	41.2	41.2	41.2	79	35.2	3	7	248	0.00	29.416 
04:30	41.2	41.2	41.2	79	35.2	3	7	248	0.00	29.420 
04:35	41.2	38.7	41.2	79	35.2	4	12	248	0.00	29.425 
04:40	41.2	37.9	41.2	78	34.9	5	13	270	0.00	29.426 
04:45	41.1	37.8	41.1	77	34.4	5	14	270	0.00	29.425 
04:50	40.8	38.2	40.8	76	33.8	4	10	248	0.00	29.422 
04:55	40.6	38.0	40.6	77	34.0	4	12	270	0.00	29.423 
05:00	40.3	37.7	40.3	76	33.3	4	10	270	0.00	29.425 
05:05	40.3	37.7	40.3	77	33.7	4	11	248	0.00	29.425 
05:10	40.2	37.5	40.2	77	33.6	4	7	248	0.00	29.427 
05:15	40.2	36.7	40.2	77	33.6	5	15	248	0.00	29.427 
05:20	40.2	37.5	40.2	77	33.6	4	11	270	0.00	29.427 
05:25	40.2	36.0	40.2	76	33.3	6	14	248	0.00	29.429 
05:30	40.2	36.7	40.2	76	33.3	5	13	248	0.00	29.429 
05:35	40.1	37.4	40.1	77	33.5	4	11	248	0.00	29.429 
05:40	40.1	40.1	40.1	77	33.5	3	9	270	0.00	29.428 
05:45	40.1	37.4	40.1	77	33.5	4	9	248	0.00	29.428 
05:50	39.9	37.2	39.9	77	33.3	4	11	248	0.00	29.428 
05:55	39.9	36.4	39.9	76	33.0	5	10	248	0.00	29.428 
06:00	39.9	36.4	39.9	75	32.6	5	13	270	0.00	29.430 
06:05	39.8	37.1	39.8	76	32.9	4	10	248	0.00	29.430 
06:10	39.8	37.1	39.8	76	32.9	4	10	248	0.00	29.430 
06:15	39.6	39.6	39.6	76	32.7	3	11	248	0.00	29.432 
06:20	39.5	39.5	39.5	76	32.6	3	6	248	0.00	29.431 
06:25	39.3	39.3	39.3	76	32.4	3	7	248	0.00	29.432 
06:30	39.2	39.2	39.2	75	32.0	3	8	270	0.00	29.435 
06:35	39.2	39.2	39.2	76	32.3	3	7	248	0.00	29.439 
06:40	39.2	39.2	39.2	76	32.3	3	9	248	0.00	29.440 
06:45	39.1	39.1	39.1	76	32.2	3	8	270	0.00	29.442 
06:50	38.9	38.9	38.9	77	32.3	3	12	248	0.00	29.445 
06:55	38.8	35.9	38.8	77	32.2	4	12	248	0.00	29.446 
07:00	38.5	38.5	38.5	78	32.2	3	7	270	0.00	29.446 
07:05	38.3	34.5	38.3	78	32.1	5	12	248	0.00	29.448 
07:10	38.3	34.5	38.3	78	32.1	5	12	248	0.00	29.449 
07:15	38.2	38.2	38.2	79	32.3	3	7	248	0.00	29.458 
07:20	38.0	35.0	38.0	79	32.1	4	10	248	0.00	29.461 
07:25	38.0	35.0	38.0	80	32.4	4	11	248	0.00	29.462 
07:30	37.9	34.9	37.9	80	32.3	4	10	248	0.00	29.464 
07:35	37.9	34.9	37.9	80	32.3	4	11	248	0.00	29.464 
07:40	37.9	34.0	37.9	79	32.0	5	12	270	0.00	29.464 
07:45	37.9	34.9	37.9	79	32.0	4	17	270	0.00	29.466 
07:50	37.9	34.0	37.9	78	31.7	5	9	248	0.00	29.469 
07:55	37.8	33.9	37.8	78	31.6	5	11	270	0.00	29.471 
08:00	37.6	34.5	37.6	78	31.4	4	11	248	0.00	29.470 
08:05	37.5	34.4	37.5	77	31.0	4	11	270	0.00	29.472 
08:10	37.3	32.5	37.3	79	31.4	6	13	270	0.00	29.475 
08:15	37.2	37.2	37.2	80	31.6	3	10	248	0.00	29.477 
08:20	37.0	33.9	37.0	80	31.4	4	11	248	0.00	29.476 
08:25	37.2	34.1	37.2	79	31.3	4	10	248	0.00	29.477 
08:30	37.2	33.2	37.2	80	31.6	5	15	248	0.00	29.478 
08:35	37.0	33.9	37.0	80	31.4	4	10	248	0.00	29.478 
08:40	37.0	32.9	37.0	79	31.1	5	11	248	0.00	29.482 
08:45	36.9	33.7	36.9	80	31.3	4	9	248	0.00	29.487 
08:50	36.9	36.9	36.9	81	31.6	3	10	248	0.00	29.490 
08:55	36.8	33.6	36.8	81	31.5	4	12	270	0.00	29.491 
09:00	36.8	36.8	36.8	82	31.8	3	10	248	0.00	29.492 
09:05	36.6	33.4	36.6	82	31.6	4	9	248	0.00	29.494 
09:10	36.6	33.4	36.6	82	31.6	4	14	248	0.00	29.495 
09:15	36.6	33.4	36.6	82	31.6	4	10	248	0.00	29.495 
09:20	36.6	32.5	36.6	83	31.9	5	13	270	0.00	29.497 
09:25	36.6	36.6	36.6	84	32.2	3	6	248	0.00	29.499 
09:30	36.6	33.4	36.6	85	32.5	4	10	248	0.00	29.502 
09:35	36.6	36.6	36.6	85	32.5	3	10	270	0.00	29.506 
09:40	36.6	33.4	36.6	85	32.5	4	10	270	0.00	29.507 
09:45	36.5	32.4	36.5	85	32.4	5	14	270	0.00	29.509 
09:50	36.6	32.5	36.6	86	32.8	5	17	270	0.01	29.512 
09:55	36.8	32.7	36.8	86	33.0	5	15	248	0.00	29.515 
10:00	36.9	32.8	36.9	86	33.1	5	11	248	0.00	29.518 
10:05	37.0	33.9	37.0	86	33.2	4	12	270	0.00	29.524 
10:10	37.0	32.9	37.0	86	33.2	5	10	270	0.00	29.525 
10:15	37.2	34.1	37.2	87	33.7	4	13	270	0.00	29.527 
10:20	37.3	33.3	37.3	87	33.8	5	13	248	0.00	29.532 
10:25	37.5	37.5	37.5	87	34.0	3	9	248	0.00	29.534 
10:30	37.8	37.8	37.8	87	34.3	3	7	248	0.00	29.537 
10:35	37.9	34.9	37.9	87	34.4	4	10	270	0.00	29.539 
10:40	37.9	34.0	37.9	87	34.4	5	12	270	0.00	29.541 
10:45	38.2	35.2	38.2	88	35.0	4	9	270	0.00	29.544 
10:50	38.3	35.4	38.3	88	35.1	4	9	270	0.00	29.551 
10:55	38.5	38.5	38.5	87	35.0	3	7	270	0.00	29.553 
11:00	38.6	34.1	38.6	86	34.8	6	16	270	0.00	29.555 
11:05	39.1	36.3	39.1	86	35.3	4	9	270	0.00	29.556 
11:10	39.3	36.5	39.3	85	35.2	4	10	270	0.00	29.562 
11:15	39.5	35.2	39.5	83	34.8	6	15	270	0.00	29.559 
11:20	39.5	35.9	39.5	82	34.5	5	15	270	0.00	29.566 
11:25	39.2	35.5	39.2	81	33.9	5	9	270	0.00	29.569 
11:30	39.1	35.4	39.1	81	33.8	5	8	270	0.00	29.572 
11:35	39.1	39.1	39.1	82	34.1	3	7	270	0.00	29.580 
11:40	39.2	36.4	39.2	82	34.2	4	10	270	0.00	29.584 
11:45	39.3	36.5	39.3	81	34.0	4	10	270	0.00	29.585 
11:50	39.2	36.4	39.2	82	34.2	4	10	270	0.00	29.591 
11:55	39.2	36.4	39.2	81	33.9	4	10	270	0.00	29.595 
12:00	38.9	34.4	38.9	81	33.6	6	11	270	0.00	29.600 
12:05	38.9	35.2	38.9	82	33.9	5	11	270	0.00	29.601 
12:10	38.9	36.0	38.9	81	33.6	4	8	270	0.00	29.605 
12:15	38.9	35.2	38.9	82	33.9	5	11	270	0.00	29.608 
12:20	39.1	36.3	39.1	82	34.1	4	7	270	0.00	29.610 
12:25	39.2	36.4	39.2	81	33.9	4	10	270	0.00	29.612 
12:30	39.2	35.5	39.2	80	33.6	5	10	270	0.00	29.617 
12:35	39.2	35.5	39.2	81	33.9	5	10	270	0.00	29.618 
12:40	39.2	35.5	39.2	79	33.2	5	16	270	0.00	29.625 
12:45	39.2	35.5	39.2	80	33.6	5	15	270	0.00	29.632 
12:50	39.2	35.5	39.2	81	33.9	5	9	270	0.00	29.636 
12:55	39.1	36.3	39.1	80	33.5	4	10	270	0.00	29.643 
13:00	39.1	35.4	39.1	78	32.8	5	13	270	0.00	29.648 
13:05	38.8	34.3	38.8	78	32.5	6	11	270	0.00	29.652 
13:10	38.6	35.7	38.6	80	33.0	4	13	270	0.00	29.659 
13:15	38.5	35.6	38.5	81	33.2	4	9	270	0.00	29.662 
13:20	38.3	38.3	38.3	82	33.3	3	6	270	0.00	29.667 
13:25	38.0	35.0	38.0	83	33.3	4	7	270	0.00	29.670 
13:30	38.2	35.2	38.2	81	32.9	4	11	270	0.00	29.676 
13:35	38.5	35.6	38.5	79	32.6	4	7	270	0.00	29.676 
13:40	38.8	35.1	38.8	77	32.2	5	12	270	0.00	29.680 
13:45	38.6	35.7	38.6	76	31.7	4	11	270	0.00	29.684 
13:50	38.6	34.8	38.6	77	32.0	5	15	270	0.00	29.689 
13:55	38.9	38.9	38.9	78	32.6	3	10	270	0.00	29.693 
14:00	38.8	35.9	38.8	78	32.5	4	7	270	0.00	29.696 
14:05	38.3	34.5	38.3	78	32.1	5	11	270	0.00	29.699 
14:10	38.0	35.0	38.0	80	32.4	4	10	270	0.00	29.705 
14:15	37.9	34.9	37.9	81	32.6	4	12	270	0.00	29.708 
14:20	38.0	38.0	38.0	82	33.0	3	7	270	0.00	29.711 
14:25	38.0	38.0	38.0	82	33.0	3	7	270	0.00	29.713 
14:30	38.0	38.0	38.0	82	33.0	3	7	270	0.00	29.715 
14:35	38.3	35.4	38.3	81	33.0	4	7	270	0.00	29.716 
14:40	38.5	38.5	38.5	81	33.2	3	10	270	0.00	29.719 
14:45	37.9	34.9	37.9	81	32.6	4	13	270	0.00	29.725 
14:50	37.3	34.2	37.3	83	32.6	4	7	270	0.00	29.730 
14:55	37.2	34.1	37.2	84	32.8	4	9	270	0.00	29.732 
15:00	37.3	34.2	37.3	84	32.9	4	7	270	0.00	29.733 
15:05	37.9	34.9	37.9	82	32.9	4	7	270	0.00	29.732 
15:10	38.0	35.0	38.0	80	32.4	4	9	270	0.00	29.735 
15:15	37.9	37.9	37.9	79	32.0	3	10	270	0.00	29.739 
15:20	37.8	33.9	37.8	79	31.9	5	13	270	0.00	29.747 
15:25	37.2	33.2	37.2	81	31.9	5	10	270	0.00	29.749 
15:30	36.6	33.4	36.6	84	32.2	4	10	270	0.00	29.751 
15:35	36.3	36.3	36.3	86	32.5	3	7	270	0.00	29.755 
15:40	36.3	33.0	36.3	88	33.1	4	9	270	0.00	29.760 
15:45	36.5	33.3	36.5	88	33.3	4	12	270	0.00	29.763 
15:50	36.3	33.0	36.3	87	32.8	4	11	270	0.00	29.765 
15:55	36.3	33.0	36.3	86	32.5	4	7	270	0.00	29.767 
16:00	36.3	36.3	36.3	86	32.5	3	6	270	0.00	29.771 
16:05	36.3	36.3	36.3	86	32.5	3	7	270	0.00	29.775 
16:10	36.3	33.0	36.3	86	32.5	4	10	270	0.00	29.780 
16:15	36.3	33.0	36.3	85	32.2	4	7	270	0.00	29.782 
16:20	36.5	36.5	36.5	84	32.1	2	5	270	0.00	29.782 
16:25	36.6	36.6	36.6	84	32.2	2	7	270	0.00	29.786 
16:30	36.6	36.6	36.6	83	31.9	3	7	270	0.00	29.795 
16:35	36.6	36.6	36.6	82	31.6	3	6	270	0.00	29.797 
16:40	36.6	32.5	36.6	81	31.3	5	12	270	0.00	29.801 
16:45	36.6	33.4	36.6	81	31.3	4	12	270	0.00	29.809 
16:50	36.6	36.6	36.6	81	31.3	3	9	270	0.00	29.811 
16:55	36.5	33.3	36.5	80	30.9	4	11	270	0.00	29.813 
17:00	36.5	33.3	36.5	80	30.9	4	7	270	0.00	29.816 
17:05	36.5	33.3	36.5	80	30.9	4	11	270	0.00	29.822 
17:10	36.5	33.3	36.5	80	30.9	4	7	270	0.00	29.826 
17:15	36.5	36.5	36.5	80	30.9	3	10	270	0.00	29.829 
17:20	36.6	36.6	36.6	79	30.7	3	6	270	0.00	29.831 
17:25	36.6	33.4	36.6	78	30.4	4	10	270	0.00	29.834 
17:30	36.6	33.4	36.6	78	30.4	4	11	270	0.00	29.840 
17:35	36.8	36.8	36.8	78	30.6	3	7	270	0.00	29.843 
17:40	36.8	33.6	36.8	78	30.6	4	9	270	0.00	29.846 
17:45	36.6	33.4	36.6	78	30.4	4	9	270	0.00	29.848 
17:50	36.6	36.6	36.6	77	30.1	3	8	270	0.00	29.852 
17:55	36.6	36.6	36.6	77	30.1	3	6	270	0.00	29.857 
18:00	36.6	36.6	36.6	77	30.1	3	12	270	0.00	29.860 
18:05	36.8	36.8	36.8	77	30.3	3	7	270	0.00	29.864 
18:10	36.8	36.8	36.8	76	30.0	3	9	270	0.00	29.870 
18:15	36.9	32.8	36.9	74	29.4	5	10	270	0.00	29.872 
18:20	36.9	33.7	36.9	75	29.7	4	9	270	0.00	29.875 
18:25	36.9	33.7	36.9	75	29.7	4	8	270	0.00	29.875 
18:30	36.9	33.7	36.9	75	29.7	4	7	270	0.00	29.877 
18:35	36.9	36.9	36.9	75	29.7	3	10	270	0.00	29.878 
18:40	36.8	36.8	36.8	76	30.0	3	6	270	0.00	29.881 
18:45	36.8	33.6	36.8	75	29.6	4	11	270	0.00	29.882 
18:50	36.8	36.8	36.8	76	30.0	2	7	248	0.00	29.887 
18:55	36.8	36.8	36.8	76	30.0	3	6	270	0.00	29.889 
19:00	36.8	36.8	36.8	77	30.3	3	6	270	0.00	29.890 
19:05	36.8	36.8	36.8	77	30.3	3	13	248	0.00	29.894 
19:10	36.8	36.8	36.8	77	30.3	3	7	270	0.00	29.896 
19:15	36.8	36.8	36.8	77	30.3	2	4	270	0.00	29.895 
19:20	36.8	36.8	36.8	76	30.0	3	10	270	0.00	29.901 
19:25	36.8	36.8	36.8	76	30.0	2	5	270	0.00	29.904 
19:30	36.6	36.6	36.6	76	29.8	3	6	270	0.00	29.905 
19:35	36.6	36.6	36.6	76	29.8	3	7	270	0.00	29.908 
19:40	36.6	36.6	36.6	76	29.8	2	6	270	0.00	29.910 
19:45	36.8	36.8	36.8	76	30.0	3	8	270	0.00	29.911 
19:50	36.8	36.8	36.8	76	30.0	3	6	270	0.00	29.915 
19:55	36.8	36.8	36.8	76	30.0	3	5	270	0.00	29.922 
20:00	36.6	36.6	36.6	76	29.8	2	5	248	0.00	29.924 
20:05	36.6	36.6	36.6	76	29.8	3	7	248	0.00	29.925 
20:10	36.6	36.6	36.6	77	30.1	2	6	248	0.00	29.927 
20:15	36.5	36.5	36.5	77	30.0	3	7	248	0.00	29.929 
20:20	36.5	36.5	36.5	78	30.3	2	10	270	0.00	29.934 
20:25	36.5	36.5	36.5	78	30.3	3	9	270	0.00	29.939 
20:30	36.5	36.5	36.5	78	30.3	2	4	270	0.00	29.941 
20:35	36.3	36.3	36.3	78	30.1	2	3	270	0.00	29.944 
20:40	36.3	36.3	36.3	78	30.1	3	9	270	0.00	29.947 
20:45	36.3	36.3	36.3	78	30.1	2	6	270	0.00	29.952 
20:50	36.3	36.3	36.3	78	30.1	3	7	270	0.00	29.957 
20:55	36.5	36.5	36.5	78	30.3	3	6	270	0.00	29.957 
21:00	36.3	36.3	36.3	78	30.1	2	11	248	0.00	29.959 
21:05	36.5	36.5	36.5	78	30.3	2	5	248	0.00	29.958 
21:10	36.3	36.3	36.3	78	30.1	3	6	248	0.00	29.959 
21:15	36.3	36.3	36.3	78	30.1	3	7	248	0.00	29.958 
21:20	36.3	36.3	36.3	78	30.1	3	8	270	0.00	29.960 
21:25	36.5	36.5	36.5	78	30.3	2	5	248	0.00	29.959 
21:30	36.5	36.5	36.5	77	30.0	3	10	270	0.00	29.961 
21:35	36.5	36.5	36.5	78	30.3	2	5	248	0.00	29.963 
21:40	36.5	36.5	36.5	78	30.3	2	5	248	0.00	29.966 
21:45	36.5	36.5	36.5	78	30.3	3	7	248	0.00	29.970 
21:50	36.5	36.5	36.5	78	30.3	3	11	248	0.00	29.972 
21:55	36.5	36.5	36.5	79	30.6	2	6	248	0.00	29.973 
22:00	36.5	36.5	36.5	79	30.6	2	9	248	0.00	29.973 
22:05	36.5	36.5	36.5	80	30.9	2	6	248	0.00	29.972 
22:10	36.5	36.5	36.5	80	30.9	3	10	270	0.00	29.973 
22:15	36.6	36.6	36.6	80	31.0	2	5	270	0.00	29.973 
22:20	36.6	36.6	36.6	80	31.0	2	5	248	0.00	29.975 
22:25	36.6	36.6	36.6	80	31.0	2	6	248	0.00	29.975 
22:30	36.6	36.6	36.6	80	31.0	2	9	292	0.00	29.976 
22:35	36.6	36.6	36.6	80	31.0	3	9	248	0.00	29.976 
22:40	36.6	36.6	36.6	80	31.0	3	7	248	0.00	29.975 
22:45	36.6	36.6	36.6	80	31.0	2	10	248	0.00	29.972 
22:50	36.6	36.6	36.6	80	31.0	2	6	248	0.00	29.972 
22:55	36.6	36.6	36.6	80	31.0	2	4	270	0.00	29.971 
23:00	36.6	36.6	36.6	80	31.0	2	6	270	0.00	29.971 
23:05	36.6	36.6	36.6	79	30.7	2	7	270	0.00	29.971 
23:10	36.6	36.6	36.6	79	30.7	3	6	270	0.00	29.972 
23:15	36.6	36.6	36.6	79	30.7	2	4	270	0.00	29.972 
23:20	36.8	36.8	36.8	78	30.6	3	6	270	0.00	29.971 
23:25	36.8	36.8	36.8	79	30.9	2	3	248	0.00	29.970 
23:30	36.8	36.8	36.8	78	30.6	3	7	270	0.00	29.971 
23:35	36.8	36.8	36.8	78	30.6	3	7	270	0.00	29.972 
23:40	36.8	36.8	36.8	78	30.6	2	6	248	0.00	29.971 
23:45	36.8	36.8	36.8	77	30.3	2	5	270	0.00	29.971 
23:50	36.8	36.8	36.8	77	30.3	2	5	270	0.00	29.972 
23:55	36.8	36.8	36.8	77	30.3	3	9	270	0.00	29.974 

CoCoRaHS
IN-AL-39
A2 Web Hosting
Creative Commons License
GoDaddy
Look for:

loaded 2017-10-19 12:22:00 • last modified 2010-11-18 10:43:29
Privacy PolicyDisclaimer
• wx.awcolley.com is powered by PmWiki v.2002016 •
• all content (unless otherwise noted) © 2017 A W Colley